DAL1434 KLAX-KSLC
Flight info
| Callsign | DAL1434 |
|---|---|
| Flight time | N/A |
| Altitude | 35000 |
| Route | ORCKA5 LAS Q70 BLIPP Q842 WINEN MLF QWENN6 |
| Aircraft | A321/M-SDE3FGHIRWY/LB1 |
Departure
| Time | 2026-04-23 21:57 |
|---|---|
| Airport | Los Angeles International Airport (KLAX) |
Arrival
| Time | N/A |
|---|---|
| Airport | Salt Lake City International Airport (KSLC) |
| Time | Latitude | Longitude | Altitude | Speed | Heading |
|---|---|---|---|---|---|
| 2026-04-23 21:25 | 33.94745 | -118.40439 | 126 ft | 0 kts | 174° |
| 2026-04-23 21:48 | 33.94750 | -118.40440 | 122 ft | 4 kts | 175° |
| 2026-04-23 21:48 | 33.94776 | -118.40442 | 123 ft | 4 kts | 159° |
| 2026-04-23 21:48 | 33.94793 | -118.40459 | 120 ft | 4 kts | 104° |
| 2026-04-23 21:49 | 33.94795 | -118.40487 | 120 ft | 1 kts | 82° |
| 2026-04-23 21:49 | 33.94794 | -118.40493 | 120 ft | 0 kts | 82° |
| 2026-04-23 21:51 | 33.94794 | -118.40491 | 120 ft | 2 kts | 82° |
| 2026-04-23 21:52 | 33.94796 | -118.40472 | 122 ft | 4 kts | 83° |
| 2026-04-23 21:52 | 33.94799 | -118.40441 | 125 ft | 4 kts | 83° |
| 2026-04-23 21:52 | 33.94802 | -118.40413 | 123 ft | 3 kts | 83° |
| 2026-04-23 21:52 | 33.94804 | -118.40387 | 123 ft | 3 kts | 83° |
| 2026-04-23 21:53 | 33.94807 | -118.40361 | 121 ft | 4 kts | 83° |
| 2026-04-23 21:53 | 33.94828 | -118.40305 | 122 ft | 11 kts | 39° |
| 2026-04-23 21:53 | 33.94892 | -118.40262 | 122 ft | 10 kts | 56° |
| 2026-04-23 21:53 | 33.94907 | -118.40185 | 123 ft | 9 kts | 82° |
| 2026-04-23 21:54 | 33.94915 | -118.40115 | 125 ft | 8 kts | 83° |
| 2026-04-23 21:54 | 33.94921 | -118.40052 | 123 ft | 7 kts | 83° |
| 2026-04-23 21:54 | 33.94927 | -118.39995 | 125 ft | 7 kts | 83° |
| 2026-04-23 21:54 | 33.94942 | -118.39941 | 124 ft | 7 kts | 56° |
| 2026-04-23 21:55 | 33.94999 | -118.39914 | 124 ft | 7 kts | 355° |
| 2026-04-23 21:55 | 33.95029 | -118.39920 | 124 ft | 6 kts | 339° |
| 2026-04-23 21:55 | 33.95041 | -118.39963 | 125 ft | 6 kts | 266° |
| 2026-04-23 21:55 | 33.95040 | -118.39973 | 124 ft | 0 kts | 265° |
| 2026-04-23 21:56 | 33.95037 | -118.40010 | 125 ft | 18 kts | 263° |
| 2026-04-23 21:56 | 33.94989 | -118.40459 | 124 ft | 86 kts | 263° |
| 2026-04-23 21:56 | 33.94892 | -118.41398 | 126 ft | 137 kts | 262° |
| 2026-04-23 21:56 | 33.94766 | -118.42681 | 283 ft | 162 kts | 261° |
| 2026-04-23 21:57 | 33.94619 | -118.44031 | 907 ft | 163 kts | 259° |
| 2026-04-23 21:57 | 33.94472 | -118.45415 | 1559 ft | 169 kts | 262° |
| 2026-04-23 21:57 | 33.94332 | -118.46830 | 2122 ft | 171 kts | 262° |
| 2026-04-23 21:57 | 33.94183 | -118.48245 | 2682 ft | 169 kts | 262° |
| 2026-04-23 21:58 | 33.94027 | -118.49661 | 3145 ft | 174 kts | 262° |
| 2026-04-23 21:58 | 33.93850 | -118.51206 | 3273 ft | 202 kts | 262° |
| 2026-04-23 21:58 | 33.93638 | -118.52974 | 3596 ft | 215 kts | 262° |
| 2026-04-23 21:58 | 33.93424 | -118.54709 | 4406 ft | 208 kts | 262° |
| 2026-04-23 21:59 | 33.93196 | -118.56432 | 4958 ft | 212 kts | 255° |
| 2026-04-23 21:59 | 33.92497 | -118.58039 | 5307 ft | 226 kts | 222° |
| 2026-04-23 21:59 | 33.91072 | -118.58870 | 5726 ft | 234 kts | 183° |
| 2026-04-23 22:00 | 33.88307 | -118.57397 | 7021 ft | 225 kts | 122° |
| 2026-04-23 22:00 | 33.87796 | -118.55615 | 7369 ft | 233 kts | 85° |
| 2026-04-23 22:00 | 33.88283 | -118.53746 | 7722 ft | 237 kts | 55° |
| 2026-04-23 22:00 | 33.89153 | -118.52081 | 8466 ft | 233 kts | 56° |
| 2026-04-23 22:01 | 33.89957 | -118.50379 | 9080 ft | 235 kts | 58° |
| 2026-04-23 22:01 | 33.90740 | -118.48631 | 9637 ft | 238 kts | 59° |
| 2026-04-23 22:01 | 33.91537 | -118.46819 | 9933 ft | 256 kts | 58° |
| 2026-04-23 22:01 | 33.92427 | -118.44920 | 10375 ft | 263 kts | 57° |
| 2026-04-23 22:02 | 33.93370 | -118.43008 | 10931 ft | 268 kts | 55° |
| 2026-04-23 22:02 | 33.94379 | -118.41113 | 11545 ft | 270 kts | 52° |
| 2026-04-23 22:02 | 33.95447 | -118.39273 | 12107 ft | 274 kts | 51° |
| 2026-04-23 22:02 | 33.96551 | -118.37382 | 12706 ft | 277 kts | 51° |
| 2026-04-23 22:03 | 33.97677 | -118.35443 | 13335 ft | 280 kts | 51° |
| 2026-04-23 22:03 | 33.98797 | -118.33513 | 13931 ft | 283 kts | 50° |
| 2026-04-23 22:03 | 33.99916 | -118.31578 | 14437 ft | 287 kts | 51° |
| 2026-04-23 22:03 | 34.01071 | -118.29566 | 14961 ft | 291 kts | 51° |
| 2026-04-23 22:04 | 34.02250 | -118.27512 | 15105 ft | 312 kts | 51° |
| 2026-04-23 22:04 | 34.03523 | -118.25285 | 15236 ft | 333 kts | 52° |
| 2026-04-23 22:04 | 34.04870 | -118.22917 | 15358 ft | 353 kts | 52° |
| 2026-04-23 22:04 | 34.06295 | -118.20402 | 15470 ft | 372 kts | 52° |
| 2026-04-23 22:05 | 34.07790 | -118.17759 | 15590 ft | 391 kts | 52° |
| 2026-04-23 22:05 | 34.09354 | -118.14985 | 15710 ft | 408 kts | 52° |
| 2026-04-23 22:05 | 34.10982 | -118.12097 | 15833 ft | 424 kts | 53° |
| 2026-04-23 22:05 | 34.12667 | -118.09108 | 16008 ft | 435 kts | 53° |
| 2026-04-23 22:06 | 34.14330 | -118.06143 | 17169 ft | 418 kts | 53° |
| 2026-04-23 22:06 | 34.15942 | -118.03258 | 18067 ft | 414 kts | 52° |
| 2026-04-23 22:06 | 34.17560 | -118.00374 | 18620 ft | 416 kts | 52° |
| 2026-04-23 22:06 | 34.19191 | -117.97475 | 19113 ft | 418 kts | 52° |
| 2026-04-23 22:07 | 34.20838 | -117.94555 | 19512 ft | 422 kts | 52° |
| 2026-04-23 22:07 | 34.22497 | -117.91610 | 19975 ft | 424 kts | 52° |
| 2026-04-23 22:07 | 34.24161 | -117.88652 | 20459 ft | 427 kts | 52° |
| 2026-04-23 22:07 | 34.25832 | -117.85679 | 20900 ft | 430 kts | 52° |
| 2026-04-23 22:08 | 34.27520 | -117.82673 | 21363 ft | 433 kts | 52° |
| 2026-04-23 22:08 | 34.29212 | -117.79651 | 21811 ft | 436 kts | 52° |
| 2026-04-23 22:08 | 34.30912 | -117.76604 | 22248 ft | 438 kts | 53° |
| 2026-04-23 22:08 | 34.32624 | -117.73530 | 22724 ft | 442 kts | 52° |
| 2026-04-23 22:09 | 34.34353 | -117.70432 | 23210 ft | 445 kts | 52° |
| 2026-04-23 22:09 | 34.36103 | -117.67328 | 23645 ft | 448 kts | 51° |
| 2026-04-23 22:09 | 34.37914 | -117.64237 | 24003 ft | 451 kts | 50° |
| 2026-04-23 22:09 | 34.39766 | -117.61163 | 24373 ft | 453 kts | 50° |
| 2026-04-23 22:10 | 34.41640 | -117.58087 | 24715 ft | 456 kts | 50° |
| 2026-04-23 22:10 | 34.43526 | -117.54987 | 25068 ft | 458 kts | 50° |
| 2026-04-23 22:10 | 34.45420 | -117.51853 | 25419 ft | 461 kts | 50° |
| 2026-04-23 22:10 | 34.47310 | -117.48699 | 25772 ft | 464 kts | 50° |
| 2026-04-23 22:11 | 34.49200 | -117.45522 | 26113 ft | 466 kts | 50° |
| 2026-04-23 22:11 | 34.51096 | -117.42318 | 26447 ft | 469 kts | 50° |
| 2026-04-23 22:11 | 34.53004 | -117.39091 | 26775 ft | 472 kts | 50° |
| 2026-04-23 22:11 | 34.54922 | -117.35850 | 27094 ft | 474 kts | 50° |
| 2026-04-23 22:12 | 34.56854 | -117.32590 | 27409 ft | 477 kts | 50° |
| 2026-04-23 22:12 | 34.58793 | -117.29320 | 27722 ft | 479 kts | 50° |
| 2026-04-23 22:12 | 34.60746 | -117.26023 | 28020 ft | 482 kts | 50° |
| 2026-04-23 22:12 | 34.62706 | -117.22710 | 28298 ft | 484 kts | 50° |
| 2026-04-23 22:13 | 34.64675 | -117.19372 | 28595 ft | 487 kts | 50° |
| 2026-04-23 22:13 | 34.66649 | -117.16019 | 28876 ft | 490 kts | 50° |
| 2026-04-23 22:13 | 34.68613 | -117.12684 | 29157 ft | 492 kts | 50° |
| 2026-04-23 22:13 | 34.70608 | -117.09294 | 29399 ft | 495 kts | 50° |
| 2026-04-23 22:14 | 34.72617 | -117.05880 | 29648 ft | 497 kts | 50° |
| 2026-04-23 22:14 | 34.74633 | -117.02453 | 29924 ft | 499 kts | 50° |
| 2026-04-23 22:14 | 34.76657 | -116.99004 | 30175 ft | 502 kts | 50° |
| 2026-04-23 22:14 | 34.78687 | -116.95547 | 30421 ft | 504 kts | 50° |
| 2026-04-23 22:15 | 34.80728 | -116.92063 | 30672 ft | 506 kts | 50° |
| 2026-04-23 22:15 | 34.82771 | -116.88571 | 30976 ft | 506 kts | 50° |
| 2026-04-23 22:15 | 34.84809 | -116.85078 | 31336 ft | 505 kts | 50° |
| 2026-04-23 22:15 | 34.86842 | -116.81591 | 31683 ft | 505 kts | 50° |
| 2026-04-23 22:16 | 34.88870 | -116.78111 | 32029 ft | 504 kts | 50° |
| 2026-04-23 22:16 | 34.90901 | -116.74626 | 32369 ft | 504 kts | 50° |
| 2026-04-23 22:16 | 34.93083 | -116.71316 | 32697 ft | 498 kts | 42° |
| 2026-04-23 22:16 | 34.95442 | -116.68229 | 33030 ft | 498 kts | 42° |
| 2026-04-23 22:17 | 34.97805 | -116.65138 | 33363 ft | 497 kts | 42° |
| 2026-04-23 22:17 | 35.00160 | -116.62049 | 33688 ft | 497 kts | 42° |
| 2026-04-23 22:17 | 35.02510 | -116.58955 | 34015 ft | 497 kts | 42° |
| 2026-04-23 22:17 | 35.04831 | -116.55890 | 34299 ft | 497 kts | 42° |
| 2026-04-23 22:18 | 35.07173 | -116.52787 | 34561 ft | 497 kts | 42° |
| 2026-04-23 22:18 | 35.09519 | -116.49678 | 34805 ft | 498 kts | 42° |
| 2026-04-23 22:18 | 35.11867 | -116.46566 | 34969 ft | 499 kts | 42° |
| 2026-04-23 22:18 | 35.14203 | -116.43470 | 35014 ft | 494 kts | 42° |
| 2026-04-23 22:19 | 35.18840 | -116.37323 | 35011 ft | 491 kts | 42° |
| 2026-04-23 22:19 | 35.23472 | -116.31184 | 35002 ft | 490 kts | 42° |
| 2026-04-23 22:20 | 35.28097 | -116.25040 | 35001 ft | 491 kts | 42° |
| 2026-04-23 22:20 | 35.32722 | -116.18874 | 34987 ft | 492 kts | 42° |
| 2026-04-23 22:21 | 35.37352 | -116.12685 | 35006 ft | 496 kts | 42° |
| 2026-04-23 22:21 | 35.42089 | -116.06364 | 35005 ft | 509 kts | 42° |
| 2026-04-23 22:22 | 35.46892 | -115.99930 | 35016 ft | 513 kts | 42° |